Floral, Canada
Current Conditions -  °F | °C
As of 4:00 PM on Monday 26 Jan 2015 (Local Time) from CYXE Reporting Station
Scattered Clouds Scattered Clouds  
Wind Chill: -1°   Ceiling: Unl
Heat Index:   Visibility: 15mi
Dew Point: -1°   Wind: 9mph
Humidity: 75%   Direction: 230°SW
Pressure: 29.84"   Gusts: NA
Location:  52.07°N, 106.47°W
Report Text: CYXE 262200Z 23008KT 15SM FEW100 SCT250 03/M01 A2984 RMK AC1CI2 SLP131
Loading
Personal Weather Stations






























Interactive Weather Map New forecast layout! Learn more

10-Day Weather Forecast

Advertisements
Track Severe Weather on mobile